createdAt,value
2023-01-07T00:02:43.079Z,96801.00
2023-01-07T00:07:12.481Z,96791.00
2023-01-07T00:11:17.661Z,96799.00
2023-01-07T00:15:23.968Z,96800.00
2023-01-07T00:19:29.208Z,96803.00
2023-01-07T00:23:37.577Z,96794.00
2023-01-07T00:28:10.737Z,96788.00
2023-01-07T00:32:14.306Z,96785.00
2023-01-07T00:36:19.465Z,96786.00
2023-01-07T00:40:27.793Z,96782.00
2023-01-07T00:45:34.121Z,96776.00
2023-01-07T00:49:37.757Z,96776.00
2023-01-07T00:53:40.752Z,96776.00
2023-01-07T00:57:49.285Z,96765.00
2023-01-07T01:01:52.409Z,96778.00
2023-01-07T01:05:57.090Z,96770.00
2023-01-07T01:10:33.290Z,96774.00
2023-01-07T01:14:40.157Z,96767.00
2023-01-07T01:18:43.569Z,96770.00
2023-01-07T01:22:48.013Z,96769.00
2023-01-07T01:26:51.535Z,96767.00
2023-01-07T01:31:02.582Z,96779.00
2023-01-07T01:35:13.557Z,96773.00
2023-01-07T01:39:16.748Z,96772.00
2023-01-07T01:43:31.294Z,96768.00
2023-01-07T01:47:39.649Z,96770.00
2023-01-07T01:51:49.741Z,96767.00
2023-01-07T01:56:06.834Z,96762.00
2023-01-07T02:00:28.405Z,96762.00
2023-01-07T02:04:40.327Z,96754.00
2023-01-07T02:09:09.281Z,96758.00
2023-01-07T02:13:47.388Z,96749.00
2023-01-07T02:18:07.536Z,96752.00
2023-01-07T02:22:27.056Z,96751.00
2023-01-07T02:27:08.988Z,96744.00
2023-01-07T02:31:43.352Z,96733.00
2023-01-07T02:36:21.842Z,96725.00
2023-01-07T02:40:31.885Z,96715.00
2023-01-07T02:44:46.186Z,96715.00
2023-01-07T02:48:49.926Z,96712.00
2023-01-07T02:53:25.172Z,96708.00
2023-01-07T02:58:06.782Z,96713.00
2023-01-07T03:02:27.533Z,96707.00
2023-01-07T03:06:54.855Z,96711.00
2023-01-07T03:11:00.812Z,96706.00
2023-01-07T03:15:12.155Z,96695.00
2023-01-07T03:19:19.042Z,96686.00
2023-01-07T03:23:28.953Z,96689.00
2023-01-07T03:27:36.605Z,96685.00
2023-01-07T03:31:50.626Z,96679.00
2023-01-07T03:36:01.550Z,96684.00
2023-01-07T03:40:10.799Z,96677.00
2023-01-07T03:44:16.744Z,96666.00
2023-01-07T03:48:22.750Z,96667.00
2023-01-07T03:52:25.887Z,96670.00
2023-01-07T03:56:28.931Z,96668.00
2023-01-07T04:00:41.380Z,96658.00
2023-01-07T04:04:47.115Z,96656.00
2023-01-07T04:08:50.334Z,96654.00
2023-01-07T04:12:55.234Z,96652.00
2023-01-07T04:16:59.979Z,96637.00
2023-01-07T04:21:03.099Z,96638.00
2023-01-07T04:25:10.076Z,96625.00
2023-01-07T04:29:13.582Z,96629.00
2023-01-07T04:33:24.759Z,96629.00
2023-01-07T04:37:30.424Z,96631.00
2023-01-07T04:41:35.640Z,96622.00
2023-01-07T04:45:40.067Z,96612.00
2023-01-07T04:49:50.623Z,96612.00
2023-01-07T04:53:53.996Z,96621.00
2023-01-07T04:58:01.187Z,96616.00
2023-01-07T05:02:05.234Z,96619.00
2023-01-07T05:06:10.200Z,96608.00
2023-01-07T05:10:13.263Z,96605.00
2023-01-07T05:14:17.550Z,96598.00
2023-01-07T05:18:20.825Z,96598.00
2023-01-07T05:22:25.339Z,96595.00
2023-01-07T05:26:30.351Z,96596.00
2023-01-07T05:30:35.865Z,96589.00
2023-01-07T05:34:43.549Z,96582.00
2023-01-07T05:38:52.220Z,96579.00
2023-01-07T05:42:55.557Z,96572.00
2023-01-07T05:46:58.611Z,96570.00
2023-01-07T05:51:03.861Z,96564.00
2023-01-07T05:55:09.607Z,96563.00
2023-01-07T05:59:13.897Z,96561.00
2023-01-07T06:03:19.825Z,96559.00
2023-01-07T06:07:22.816Z,96556.00
2023-01-07T06:11:30.863Z,96557.00
2023-01-07T06:15:36.326Z,96555.00
2023-01-07T06:19:41.420Z,96563.00
2023-01-07T06:23:46.782Z,96559.00
2023-01-07T06:27:51.440Z,96554.00
2023-01-07T06:31:56.675Z,96549.00
2023-01-07T06:36:01.374Z,96550.00
2023-01-07T06:40:11.334Z,96541.00
2023-01-07T06:44:20.859Z,96544.00
2023-01-07T06:48:23.915Z,96533.00
2023-01-07T06:52:29.936Z,96523.00
2023-01-07T06:56:35.694Z,96528.00
2023-01-07T07:00:43.962Z,96520.00
2023-01-07T07:04:51.388Z,96517.00
2023-01-07T07:08:56.060Z,96519.00
2023-01-07T07:12:59.313Z,96526.00
2023-01-07T07:17:03.959Z,96524.00
2023-01-07T07:21:10.027Z,96527.00
2023-01-07T07:25:15.305Z,96522.00
2023-01-07T07:29:21.775Z,96527.00
2023-01-07T07:33:26.555Z,96521.00
2023-01-07T07:37:32.818Z,96523.00
2023-01-07T07:41:35.913Z,96524.00
2023-01-07T07:45:41.442Z,96510.00
2023-01-07T07:49:48.546Z,96514.00
2023-01-07T07:53:51.687Z,96507.00
2023-01-07T07:58:06.982Z,96513.00
2023-01-07T08:02:12.577Z,96501.00
2023-01-07T08:06:31.935Z,96503.00
2023-01-07T08:10:35.014Z,96489.00
2023-01-07T08:14:39.862Z,96492.00
2023-01-07T08:18:44.769Z,96489.00
2023-01-07T08:22:56.125Z,96490.00
2023-01-07T08:26:59.152Z,96483.00
2023-01-07T08:31:03.614Z,96491.00
2023-01-07T08:35:09.313Z,96477.00
2023-01-07T08:39:17.190Z,96475.00
2023-01-07T08:43:24.217Z,96476.00
2023-01-07T08:47:31.576Z,96471.00
2023-01-07T08:51:37.948Z,96462.00
2023-01-07T08:55:44.079Z,96468.00
2023-01-07T08:59:47.324Z,96468.00
2023-01-07T09:03:51.826Z,96460.00
2023-01-07T09:07:56.941Z,96453.00
2023-01-07T09:12:01.679Z,96456.00
2023-01-07T09:16:05.485Z,96448.00
2023-01-07T09:20:10.199Z,96442.00
2023-01-07T09:29:30.637Z,96442.00
2023-01-07T09:34:04.466Z,96446.00
2023-01-07T09:38:41.447Z,96433.00
2023-01-07T09:43:19.521Z,96429.00
2023-01-07T09:48:04.765Z,96422.00
2023-01-07T09:52:38.124Z,96422.00
2023-01-07T09:57:13.028Z,96433.00
2023-01-07T10:01:50.037Z,96420.00
2023-01-07T10:06:15.062Z,96422.00
2023-01-07T10:10:37.990Z,96415.00
2023-01-07T10:15:20.335Z,96411.00
2023-01-07T10:19:49.559Z,96401.00
2023-01-07T10:23:59.103Z,96397.00
2023-01-07T10:28:07.339Z,96394.00
2023-01-07T10:32:39.461Z,96392.00
2023-01-07T10:37:12.848Z,96377.00
2023-01-07T10:41:21.500Z,96369.00
2023-01-07T10:45:56.171Z,96366.00
2023-01-07T10:50:31.536Z,96364.00
2023-01-07T10:55:21.205Z,96359.00
2023-01-07T10:59:30.251Z,96344.00
2023-01-07T11:04:01.639Z,96343.00
2023-01-07T11:13:28.904Z,96326.00
2023-01-07T11:17:38.603Z,96315.00
2023-01-07T11:22:20.559Z,96307.00
2023-01-07T11:26:28.562Z,96299.00
2023-01-07T11:30:36.057Z,96297.00
2023-01-07T11:35:09.580Z,96284.00
2023-01-07T11:39:45.732Z,96281.00
2023-01-07T11:44:23.379Z,96273.00
2023-01-07T11:48:54.783Z,96262.00
2023-01-07T11:53:36.758Z,96255.00
2023-01-07T11:58:28.477Z,96246.00
2023-01-07T12:03:01.829Z,96245.00
2023-01-07T12:07:08.263Z,96237.00
2023-01-07T12:11:41.812Z,96234.00
2023-01-07T12:15:52.815Z,96220.00
2023-01-07T12:20:15.735Z,96221.00
2023-01-07T12:24:37.827Z,96206.00
2023-01-07T12:29:08.812Z,96210.00
2023-01-07T12:33:24.584Z,96206.00
2023-01-07T12:37:32.719Z,96196.00
2023-01-07T12:42:05.178Z,96194.00
2023-01-07T12:46:17.723Z,96195.00
2023-01-07T12:50:45.853Z,96176.00
2023-01-07T12:55:22.057Z,96168.00
2023-01-07T12:59:57.255Z,96167.00
2023-01-07T13:04:42.416Z,96161.00
2023-01-07T13:08:53.704Z,96156.00
2023-01-07T13:12:59.848Z,96157.00
2023-01-07T13:17:40.720Z,96157.00
2023-01-07T13:21:59.794Z,96156.00
2023-01-07T13:26:34.088Z,96162.00
2023-01-07T13:30:46.308Z,96159.00
2023-01-07T13:35:32.586Z,96151.00
2023-01-07T13:40:01.609Z,96151.00
2023-01-07T13:45:00.753Z,96149.00
2023-01-07T13:49:56.636Z,96144.00
2023-01-07T13:54:00.926Z,96149.00
2023-01-07T13:58:44.035Z,96139.00
2023-01-07T14:02:59.072Z,96131.00
2023-01-07T14:07:33.834Z,96134.00
2023-01-07T14:11:55.005Z,96126.00
2023-01-07T14:16:07.781Z,96130.00
2023-01-07T14:20:39.819Z,96134.00
2023-01-07T14:25:22.670Z,96131.00
2023-01-07T14:29:46.570Z,96127.00
2023-01-07T14:34:07.349Z,96140.00
2023-01-07T14:38:49.339Z,96131.00
2023-01-07T14:43:32.057Z,96128.00
2023-01-07T14:47:58.105Z,96127.00
2023-01-07T14:52:38.274Z,96123.00
2023-01-07T14:56:52.576Z,96128.00
2023-01-07T15:01:36.782Z,96122.00
2023-01-07T15:06:14.232Z,96115.00
2023-01-07T15:10:51.245Z,96104.00
2023-01-07T15:15:35.718Z,96114.00
2023-01-07T15:19:45.314Z,96109.00
2023-01-07T15:24:24.951Z,96099.00
2023-01-07T15:29:02.144Z,96099.00
2023-01-07T15:33:32.897Z,96103.00
2023-01-07T15:38:23.651Z,96102.00
2023-01-07T15:42:54.551Z,96104.00
2023-01-07T15:47:30.791Z,96105.00
2023-01-07T15:52:22.582Z,96114.00
2023-01-07T15:56:45.567Z,96114.00
2023-01-07T16:01:19.062Z,96113.00
2023-01-07T16:05:53.438Z,96115.00
2023-01-07T16:09:59.948Z,96112.00
2023-01-07T16:14:05.919Z,96101.00
2023-01-07T16:18:42.204Z,96110.00
2023-01-07T16:23:15.984Z,96104.00
2023-01-07T16:27:53.491Z,96086.00
2023-01-07T16:32:30.935Z,96089.00
2023-01-07T16:37:13.894Z,96067.00
2023-01-07T16:41:45.785Z,96066.00
2023-01-07T16:46:23.727Z,96073.00
2023-01-07T16:50:55.631Z,96081.00
2023-01-07T16:55:35.588Z,96080.00
2023-01-07T17:00:21.573Z,96074.00
2023-01-07T17:04:49.501Z,96078.00
2023-01-07T17:09:27.608Z,96075.00
2023-01-07T17:14:25.511Z,96066.00
2023-01-07T17:19:04.624Z,96069.00
2023-01-07T17:23:48.406Z,96082.00
2023-01-07T17:28:19.401Z,96080.00
2023-01-07T17:32:53.254Z,96078.00
2023-01-07T17:37:31.322Z,96075.00
2023-01-07T17:42:29.557Z,96077.00
2023-01-07T17:46:44.634Z,96084.00
2023-01-07T17:51:18.078Z,96083.00
2023-01-07T17:55:55.018Z,96084.00
2023-01-07T18:00:36.704Z,96081.00
2023-01-07T18:05:07.321Z,96073.00
2023-01-07T18:09:44.582Z,96072.00
2023-01-07T18:13:47.710Z,96065.00
2023-01-07T18:18:26.222Z,96066.00
2023-01-07T18:22:59.944Z,96060.00
2023-01-07T18:27:37.174Z,96055.00
2023-01-07T18:32:13.867Z,96063.00
2023-01-07T18:36:53.539Z,96058.00
2023-01-07T18:41:27.618Z,96067.00
2023-01-07T18:46:08.052Z,96051.00
2023-01-07T18:50:11.507Z,96067.00
2023-01-07T18:54:47.437Z,96060.00
2023-01-07T18:59:21.863Z,96065.00
2023-01-07T19:04:02.043Z,96062.00
2023-01-07T19:08:36.078Z,96063.00
2023-01-07T19:13:15.328Z,96071.00
2023-01-07T19:17:49.332Z,96058.00
2023-01-07T19:22:26.488Z,96064.00
2023-01-07T19:27:03.395Z,96069.00
2023-01-07T19:31:45.634Z,96061.00
2023-01-07T19:36:17.776Z,96069.00
2023-01-07T19:40:23.950Z,96077.00
2023-01-07T19:44:27.081Z,96088.00
2023-01-07T19:49:13.513Z,96082.00
2023-01-07T19:53:44.039Z,96073.00
2023-01-07T19:58:15.074Z,96068.00
2023-01-07T20:02:52.298Z,96061.00
2023-01-07T20:07:36.304Z,96048.00
2023-01-07T20:12:06.204Z,96055.00
2023-01-07T20:17:04.342Z,96052.00
2023-01-07T20:21:42.388Z,96049.00
2023-01-07T20:26:29.504Z,96037.00
2023-01-07T20:30:35.272Z,96041.00
2023-01-07T20:35:14.988Z,96049.00
2023-01-07T20:39:49.520Z,96037.00
2023-01-07T20:43:53.813Z,96031.00
2023-01-07T20:47:59.653Z,96031.00
2023-01-07T20:52:03.911Z,96016.00
2023-01-07T20:56:11.125Z,96010.00
2023-01-07T21:00:15.789Z,96005.00
2023-01-07T21:04:51.174Z,95998.00
2023-01-07T21:09:28.562Z,96005.00
2023-01-07T21:14:05.292Z,95996.00
2023-01-07T21:19:07.844Z,95993.00
2023-01-07T21:23:43.170Z,95990.00
2023-01-07T21:28:17.241Z,95994.00
2023-01-07T21:32:20.438Z,95992.00
2023-01-07T21:36:24.806Z,95984.00
2023-01-07T21:40:31.674Z,95986.00
2023-01-07T21:45:02.363Z,95979.00
2023-01-07T21:49:39.937Z,95976.00
2023-01-07T21:54:16.523Z,95982.00
2023-01-07T21:58:57.773Z,95984.00
2023-01-07T22:03:03.867Z,95977.00
2023-01-07T22:07:08.807Z,95974.00
2023-01-07T22:11:44.160Z,95971.00
2023-01-07T22:16:22.479Z,95974.00
2023-01-07T22:21:23.555Z,95975.00
2023-01-07T22:26:03.125Z,95962.00
2023-01-07T22:30:35.245Z,95972.00
2023-01-07T22:34:41.677Z,95977.00
2023-01-07T22:39:16.763Z,95987.00
2023-01-07T22:43:25.498Z,95977.00
2023-01-07T22:47:55.959Z,95980.00
2023-01-07T22:52:05.616Z,95977.00
2023-01-07T22:56:09.325Z,95982.00
2023-01-07T23:00:20.695Z,95972.00
2023-01-07T23:04:25.274Z,95970.00
2023-01-07T23:08:30.202Z,95970.00
2023-01-07T23:12:38.846Z,95958.00
2023-01-07T23:16:42.042Z,95957.00
2023-01-07T23:20:45.611Z,95952.00
2023-01-07T23:24:55.070Z,95950.00
2023-01-07T23:28:59.917Z,95946.00
2023-01-07T23:33:06.727Z,95935.00
2023-01-07T23:37:48.737Z,95927.00
2023-01-07T23:41:59.137Z,95928.00
2023-01-07T23:46:07.755Z,95922.00
2023-01-07T23:50:11.558Z,95909.00
2023-01-07T23:54:14.676Z,95897.00
2023-01-07T23:58:19.544Z,95896.00
